createdAt,value
2017-05-01T00:00:10.780Z,3.02
2017-05-01T00:02:37.782Z,2.85
2017-05-01T00:05:04.955Z,2.90
2017-05-01T00:07:32.687Z,3.42
2017-05-01T00:09:59.702Z,3.42
2017-05-01T00:12:26.728Z,2.32
2017-05-01T00:14:53.725Z,5.10
2017-05-01T00:17:20.719Z,3.50
2017-05-01T00:19:47.778Z,3.65
2017-05-01T00:22:14.776Z,4.73
2017-05-01T00:24:41.776Z,4.70
2017-05-01T00:27:10.363Z,4.20
2017-05-01T00:29:37.363Z,3.57
2017-05-01T00:32:04.397Z,3.92
2017-05-01T00:34:31.379Z,3.82
2017-05-01T00:36:58.412Z,3.53
2017-05-01T00:39:27.102Z,3.92
2017-05-01T00:41:54.876Z,3.95
2017-05-01T00:44:21.941Z,4.15
2017-05-01T00:46:48.979Z,3.87
2017-05-01T00:49:16.066Z,3.95
2017-05-01T00:51:43.115Z,4.20
2017-05-01T00:54:10.108Z,3.82
2017-05-01T00:56:37.222Z,3.62
2017-05-01T00:59:04.263Z,4.90
2017-05-01T01:01:31.272Z,4.52
2017-05-01T01:03:58.275Z,4.22
2017-05-01T01:06:25.328Z,4.37
2017-05-01T01:08:53.227Z,3.88
2017-05-01T01:11:26.265Z,4.08
2017-05-01T01:13:53.316Z,4.35
2017-05-01T01:16:20.368Z,3.80
2017-05-01T01:18:47.392Z,4.38
2017-05-01T01:21:14.414Z,4.25
2017-05-01T01:23:41.532Z,4.08
2017-05-01T01:26:09.367Z,4.85
2017-05-01T01:28:36.355Z,4.90
2017-05-01T01:31:03.470Z,4.25
2017-05-01T01:33:30.515Z,4.73
2017-05-01T01:35:57.627Z,4.68
2017-05-01T01:38:24.711Z,4.05
2017-05-01T01:40:51.773Z,4.28
2017-05-01T01:43:18.865Z,3.98
2017-05-01T01:45:45.960Z,4.17
2017-05-01T01:48:13.039Z,4.30
2017-05-01T01:50:40.131Z,4.58
2017-05-01T01:53:07.219Z,5.17
2017-05-01T01:55:35.014Z,4.52
2017-05-01T01:58:02.124Z,5.17
2017-05-01T02:00:29.185Z,4.83
2017-05-01T02:02:57.017Z,5.58
2017-05-01T02:05:25.960Z,5.70
2017-05-01T02:07:53.013Z,5.52
2017-05-01T02:10:20.064Z,5.57
2017-05-01T02:12:47.161Z,5.03
2017-05-01T02:15:14.227Z,5.60
2017-05-01T02:17:42.049Z,4.65
2017-05-01T02:20:09.153Z,4.93
2017-05-01T02:22:36.245Z,5.60
2017-05-01T02:25:03.287Z,4.90
2017-05-01T02:27:30.396Z,5.60
2017-05-01T02:29:57.442Z,5.43
2017-05-01T02:32:24.552Z,5.30
2017-05-01T02:34:51.613Z,4.75
2017-05-01T02:37:18.746Z,5.83
2017-05-01T02:39:45.815Z,5.95
2017-05-01T02:42:13.675Z,4.98
2017-05-01T02:44:40.723Z,5.03
2017-05-01T02:47:07.807Z,4.85
2017-05-01T02:49:34.900Z,5.12
2017-05-01T02:52:01.949Z,6.15
2017-05-01T02:54:29.027Z,4.40
2017-05-01T02:56:56.121Z,4.68
2017-05-01T02:59:23.171Z,4.67
2017-05-01T03:01:50.285Z,4.42
2017-05-01T03:04:17.334Z,5.38
2017-05-01T03:06:44.415Z,4.70
2017-05-01T03:09:11.548Z,4.57
2017-05-01T03:11:38.611Z,4.32
2017-05-01T03:14:05.670Z,4.87
2017-05-01T03:16:32.766Z,4.72
2017-05-01T03:18:59.880Z,4.47
2017-05-01T03:21:26.871Z,4.98
2017-05-01T03:23:53.911Z,5.40
2017-05-01T03:26:20.966Z,4.62
2017-05-01T03:28:47.970Z,3.82
2017-05-01T03:31:15.060Z,4.57
2017-05-01T03:33:42.080Z,3.98
2017-05-01T03:36:09.855Z,3.80
2017-05-01T03:38:37.681Z,3.82
2017-05-01T03:41:04.681Z,3.97
2017-05-01T03:43:31.685Z,3.55
2017-05-01T03:45:58.685Z,3.68
2017-05-01T03:48:25.712Z,4.55
2017-05-01T03:50:52.740Z,4.80
2017-05-01T03:53:20.518Z,7.13
2017-05-01T03:55:48.274Z,3.42
2017-05-01T03:58:16.002Z,4.25
2017-05-01T04:00:43.029Z,3.57
2017-05-01T04:03:10.098Z,2.95
2017-05-01T04:05:37.066Z,3.77
2017-05-01T04:08:04.812Z,5.08
2017-05-01T04:10:31.855Z,4.13
2017-05-01T04:12:58.871Z,3.72
2017-05-01T04:15:25.884Z,3.63
2017-05-01T04:17:53.677Z,4.93
2017-05-01T04:20:20.715Z,4.28
2017-05-01T04:22:47.707Z,4.60
2017-05-01T04:25:14.751Z,3.85
2017-05-01T04:27:41.805Z,3.70
2017-05-01T04:30:08.819Z,3.78
2017-05-01T04:32:35.862Z,5.42
2017-05-01T04:35:02.848Z,4.10
2017-05-01T04:37:29.876Z,3.98
2017-05-01T04:39:56.930Z,3.35
2017-05-01T04:42:23.989Z,3.20
2017-05-01T04:44:51.020Z,3.67
2017-05-01T04:47:18.039Z,3.77
2017-05-01T04:49:45.041Z,3.62
2017-05-01T04:52:12.091Z,3.05
2017-05-01T04:54:39.090Z,3.80
2017-05-01T04:57:06.100Z,6.08
2017-05-01T04:59:33.158Z,4.02
2017-05-01T05:02:05.377Z,3.50
2017-05-01T05:04:33.043Z,3.15
2017-05-01T05:07:00.064Z,3.72
2017-05-01T05:09:27.623Z,2.93
2017-05-01T05:11:54.698Z,3.37
2017-05-01T05:14:21.714Z,3.97
2017-05-01T05:16:48.720Z,5.23
2017-05-01T05:19:15.770Z,3.50
2017-05-01T05:21:42.775Z,3.30
2017-05-01T05:24:09.772Z,3.32
2017-05-01T05:26:36.895Z,3.58
2017-05-01T05:29:04.631Z,3.35
2017-05-01T05:31:31.640Z,3.65
2017-05-01T05:33:58.717Z,3.40
2017-05-01T05:36:25.730Z,3.20
2017-05-01T05:38:52.825Z,3.30
2017-05-01T05:41:19.874Z,3.03
2017-05-01T05:43:46.898Z,2.10
2017-05-01T05:46:15.498Z,2.60
2017-05-01T05:48:42.545Z,2.48
2017-05-01T05:51:09.649Z,2.22
2017-05-01T05:53:36.675Z,11.33
2017-05-01T05:56:03.715Z,4.70
2017-05-01T05:58:31.488Z,3.12
2017-05-01T06:00:59.278Z,2.50
2017-05-01T06:03:26.288Z,2.25
2017-05-01T06:05:54.084Z,1.68
2017-05-01T06:08:21.136Z,1.60
2017-05-01T06:10:48.144Z,2.03
2017-05-01T06:13:15.885Z,1.15
2017-05-01T06:15:42.973Z,1.27
2017-05-01T06:18:10.691Z,2.98
2017-05-01T06:20:37.697Z,0.98
2017-05-01T06:23:04.951Z,1.10
2017-05-01T06:25:31.954Z,1.02
2017-05-01T06:27:58.939Z,0.72
2017-05-01T06:30:26.004Z,1.00
2017-05-01T06:32:53.039Z,2.87
2017-05-01T06:35:20.073Z,2.15
2017-05-01T06:37:47.098Z,1.38
2017-05-01T06:40:14.862Z,1.12
2017-05-01T06:42:42.627Z,1.38
2017-05-01T06:45:10.432Z,1.40
2017-05-01T06:47:37.477Z,2.20
2017-05-01T06:50:04.467Z,1.00
2017-05-01T06:52:31.513Z,2.07
2017-05-01T06:54:58.501Z,0.67
2017-05-01T06:57:25.493Z,0.72
2017-05-01T06:59:52.576Z,0.50
2017-05-01T07:02:20.303Z,0.40
2017-05-01T07:04:47.317Z,0.50
2017-05-01T07:07:14.563Z,0.58
2017-05-01T07:09:41.596Z,0.47
2017-05-01T07:12:08.635Z,1.02
2017-05-01T07:14:36.399Z,0.50
2017-05-01T07:17:04.239Z,0.40
2017-05-01T07:19:31.336Z,0.40
2017-05-01T07:21:58.414Z,0.62
2017-05-01T07:24:25.391Z,0.67
2017-05-01T07:26:52.421Z,2.28
2017-05-01T07:29:19.528Z,4.03
2017-05-01T07:31:46.523Z,1.12
2017-05-01T07:34:13.569Z,1.40
2017-05-01T07:36:40.598Z,1.20
2017-05-01T07:39:07.691Z,2.97
2017-05-01T07:41:35.427Z,5.18
2017-05-01T07:44:02.470Z,1.50
2017-05-01T07:46:29.526Z,1.63
2017-05-01T07:48:56.533Z,0.93
2017-05-01T07:51:23.572Z,0.80
2017-05-01T07:53:50.560Z,0.67
2017-05-01T07:56:17.632Z,0.73
2017-05-01T07:58:45.401Z,0.73
2017-05-01T08:01:12.469Z,0.70
2017-05-01T08:03:39.510Z,0.40
2017-05-01T08:06:06.576Z,0.48
2017-05-01T08:08:33.591Z,0.93
2017-05-01T08:11:00.609Z,0.57
2017-05-01T08:13:27.707Z,0.62
2017-05-01T08:15:54.749Z,0.60
2017-05-01T08:18:21.775Z,0.57
2017-05-01T08:20:49.574Z,0.50
2017-05-01T08:23:16.648Z,1.93
2017-05-01T08:25:43.738Z,1.30
2017-05-01T08:28:10.760Z,1.03
2017-05-01T08:30:37.833Z,0.45
2017-05-01T08:33:04.878Z,0.62
2017-05-01T08:35:31.866Z,0.50
2017-05-01T08:37:58.904Z,0.65
2017-05-01T08:40:25.991Z,1.53
2017-05-01T08:42:53.022Z,0.92
2017-05-01T08:45:20.007Z,0.60
2017-05-01T08:47:47.023Z,0.72
2017-05-01T08:50:14.119Z,0.57
2017-05-01T08:52:41.206Z,0.60
2017-05-01T08:55:08.261Z,0.65
2017-05-01T08:57:35.308Z,0.50
2017-05-01T09:00:02.369Z,0.52
2017-05-01T09:02:29.423Z,0.62
2017-05-01T09:04:56.471Z,1.00
2017-05-01T09:07:23.541Z,0.40
2017-05-01T09:09:50.592Z,0.80
2017-05-01T09:12:17.659Z,1.38
2017-05-01T09:14:44.730Z,1.20
2017-05-01T09:17:11.760Z,3.42
2017-05-01T09:19:38.805Z,2.55
2017-05-01T09:22:05.883Z,1.80
2017-05-01T09:24:32.935Z,1.43
2017-05-01T09:26:59.962Z,1.83
2017-05-01T09:29:27.049Z,5.18
2017-05-01T09:31:54.078Z,10.57
2017-05-01T09:34:21.129Z,10.20
2017-05-01T09:36:48.139Z,26.95
2017-05-01T09:39:15.179Z,18.13
2017-05-01T09:41:42.220Z,10.77
2017-05-01T09:44:09.269Z,2.08
2017-05-01T09:46:36.346Z,0.70
2017-05-01T09:49:03.441Z,1.03
2017-05-01T09:51:30.452Z,2.42
2017-05-01T09:53:57.489Z,8.43
2017-05-01T09:56:24.553Z,4.85
2017-05-01T09:58:51.631Z,4.90
2017-05-01T10:01:18.685Z,12.82
2017-05-01T10:03:45.722Z,7.95
2017-05-01T10:06:13.531Z,4.07
2017-05-01T10:08:43.053Z,4.88
2017-05-01T10:11:10.111Z,1.90
2017-05-01T10:13:37.217Z,16.37
2017-05-01T10:16:04.259Z,6.72
2017-05-01T10:18:31.342Z,9.52
2017-05-01T10:20:58.520Z,6.50
2017-05-01T10:23:26.264Z,1.53
2017-05-01T10:25:53.337Z,4.65
2017-05-01T10:28:21.185Z,1.55
2017-05-01T10:30:48.231Z,1.35
2017-05-01T10:33:15.248Z,1.20
2017-05-01T10:35:42.337Z,21.55
2017-05-01T10:38:10.207Z,7.88
2017-05-01T10:40:38.004Z,3.52
2017-05-01T10:43:05.052Z,3.23
2017-05-01T10:45:32.125Z,5.03
2017-05-01T10:47:59.185Z,6.00
2017-05-01T10:50:26.540Z,1.87
2017-05-01T10:52:53.635Z,1.15
2017-05-01T10:55:20.674Z,1.20
2017-05-01T10:57:48.454Z,1.63
2017-05-01T11:00:15.522Z,1.48
2017-05-01T11:02:42.576Z,1.20
2017-05-01T11:05:09.620Z,1.05
2017-05-01T11:07:36.688Z,0.85
2017-05-01T11:10:03.723Z,0.70
2017-05-01T11:12:30.799Z,0.92
2017-05-01T11:14:58.649Z,0.80
2017-05-01T11:17:25.699Z,1.23
2017-05-01T11:19:52.739Z,7.40
2017-05-01T11:22:19.860Z,2.67
2017-05-01T11:24:46.923Z,1.93
2017-05-01T11:27:13.961Z,1.43
2017-05-01T11:29:41.024Z,2.63
2017-05-01T11:32:08.102Z,3.92
2017-05-01T11:34:35.876Z,5.47
2017-05-01T11:37:02.959Z,6.32
2017-05-01T11:39:30.012Z,1.55
2017-05-01T11:41:57.033Z,0.78
2017-05-01T11:44:24.205Z,1.83
2017-05-01T11:46:51.236Z,1.13
2017-05-01T11:49:18.280Z,1.60
2017-05-01T11:51:45.344Z,2.43
2017-05-01T11:54:12.419Z,0.88
2017-05-01T11:56:39.526Z,1.20
2017-05-01T11:59:06.558Z,1.80
2017-05-01T12:01:34.350Z,1.40
2017-05-01T12:04:05.743Z,1.35
2017-05-01T12:06:34.046Z,0.70
2017-05-01T12:09:01.868Z,1.00
2017-05-01T12:11:28.907Z,3.10
2017-05-01T12:13:55.912Z,4.38
2017-05-01T12:16:22.980Z,1.23
2017-05-01T12:18:50.009Z,0.80
2017-05-01T12:21:17.008Z,0.85
2017-05-01T12:23:44.083Z,0.70
2017-05-01T12:26:11.109Z,0.80
2017-05-01T12:28:38.161Z,0.70
2017-05-01T12:31:05.209Z,1.03
2017-05-01T12:33:32.259Z,1.22
2017-05-01T12:35:59.339Z,0.80
2017-05-01T12:38:26.388Z,1.05
2017-05-01T12:40:53.393Z,1.15
2017-05-01T12:43:20.553Z,1.02
2017-05-01T12:45:47.590Z,0.68
2017-05-01T12:48:14.672Z,0.92
2017-05-01T12:50:41.734Z,0.83
2017-05-01T12:53:08.837Z,0.97
2017-05-01T12:55:35.909Z,1.08
2017-05-01T12:58:03.699Z,1.35
2017-05-01T13:00:30.712Z,0.72
2017-05-01T13:02:58.498Z,1.00
2017-05-01T13:05:25.610Z,0.97
2017-05-01T13:07:52.683Z,0.92
2017-05-01T13:10:20.479Z,0.60
2017-05-01T13:12:47.627Z,1.37
2017-05-01T13:15:14.679Z,1.82
2017-05-01T13:17:41.713Z,1.60
2017-05-01T13:20:08.788Z,1.10
2017-05-01T13:22:35.803Z,0.98
2017-05-01T13:25:02.827Z,2.20
2017-05-01T13:27:30.617Z,3.58
2017-05-01T13:29:57.655Z,1.25
2017-05-01T13:32:24.685Z,1.80
2017-05-01T13:34:52.490Z,2.40
2017-05-01T13:37:19.554Z,3.18
2017-05-01T13:39:46.601Z,1.75
2017-05-01T13:42:13.634Z,1.05
2017-05-01T13:44:40.689Z,1.83
2017-05-01T13:47:07.742Z,1.57
2017-05-01T13:49:34.762Z,2.18
2017-05-01T13:52:01.799Z,1.73
2017-05-01T13:54:28.874Z,2.15
2017-05-01T13:56:55.903Z,1.00
2017-05-01T13:59:22.972Z,0.68
2017-05-01T14:01:50.011Z,9.10
2017-05-01T14:04:17.035Z,8.10
2017-05-01T14:06:44.103Z,1.60
2017-05-01T14:09:11.137Z,1.22
2017-05-01T14:11:38.157Z,2.00
2017-05-01T14:14:05.930Z,2.75
2017-05-01T14:16:33.036Z,3.93
2017-05-01T14:19:00.136Z,2.05
2017-05-01T14:21:27.183Z,2.20
2017-05-01T14:23:54.226Z,2.28
2017-05-01T14:26:21.280Z,0.68
2017-05-01T14:28:48.327Z,1.30
2017-05-01T14:31:15.367Z,1.93
2017-05-01T14:33:42.409Z,2.33
2017-05-01T14:36:09.456Z,0.60
2017-05-01T14:38:36.514Z,2.83
2017-05-01T14:41:03.529Z,0.90
2017-05-01T14:43:31.350Z,1.15
2017-05-01T14:45:58.406Z,1.62
2017-05-01T14:48:25.466Z,5.23
2017-05-01T14:50:52.521Z,2.85
2017-05-01T14:53:19.541Z,0.72
2017-05-01T14:55:46.547Z,0.92
2017-05-01T14:58:13.625Z,0.92
2017-05-01T15:00:40.694Z,4.15
2017-05-01T15:03:07.837Z,1.35
2017-05-01T15:05:34.898Z,0.93
2017-05-01T15:08:01.952Z,1.73
2017-05-01T15:10:29.029Z,1.93
2017-05-01T15:12:56.804Z,1.80
2017-05-01T15:15:23.819Z,1.50
2017-05-01T15:17:51.279Z,1.45
2017-05-01T15:20:18.326Z,1.17
2017-05-01T15:22:45.475Z,2.25
2017-05-01T15:25:12.526Z,3.98
2017-05-01T15:27:39.618Z,2.75
2017-05-01T15:30:06.676Z,5.27
2017-05-01T15:32:33.762Z,1.87
2017-05-01T15:35:00.783Z,1.88
2017-05-01T15:37:27.780Z,1.88
2017-05-01T15:39:54.851Z,2.18
2017-05-01T15:42:21.868Z,0.85
2017-05-01T15:44:49.639Z,3.07
2017-05-01T15:47:16.733Z,1.72
2017-05-01T15:49:43.736Z,1.77
2017-05-01T15:52:10.770Z,1.68
2017-05-01T15:54:38.636Z,0.90
2017-05-01T15:57:06.406Z,0.72
2017-05-01T15:59:34.234Z,0.67
2017-05-01T16:02:01.290Z,1.83
2017-05-01T16:04:28.305Z,2.02
2017-05-01T16:06:55.403Z,2.02
2017-05-01T16:09:22.459Z,1.30
2017-05-01T16:11:50.212Z,1.32
2017-05-01T16:14:17.973Z,1.22
2017-05-01T16:16:44.997Z,1.58
2017-05-01T16:19:12.060Z,2.95
2017-05-01T16:21:39.105Z,1.65
2017-05-01T16:24:06.905Z,1.52
2017-05-01T16:26:33.958Z,1.57
2017-05-01T16:29:00.966Z,1.60
2017-05-01T16:31:27.977Z,2.75
2017-05-01T16:33:55.030Z,2.27
2017-05-01T16:36:22.043Z,4.57
2017-05-01T16:38:49.084Z,6.13
2017-05-01T16:41:16.149Z,4.70
2017-05-01T16:43:43.202Z,5.10
2017-05-01T16:46:10.209Z,5.03
2017-05-01T16:48:37.952Z,2.48
2017-05-01T16:51:05.009Z,1.65
2017-05-01T16:53:32.786Z,2.00
2017-05-01T16:56:00.564Z,1.50
2017-05-01T16:58:27.574Z,1.72
2017-05-01T17:00:54.593Z,2.12
2017-05-01T17:03:21.590Z,3.78
2017-05-01T17:05:49.329Z,2.90
2017-05-01T17:08:16.419Z,4.28
2017-05-01T17:10:43.451Z,1.57
2017-05-01T17:13:11.293Z,2.05
2017-05-01T17:15:38.302Z,2.20
2017-05-01T17:18:05.348Z,2.82
2017-05-01T17:20:32.360Z,5.18
2017-05-01T17:22:59.463Z,3.75
2017-05-01T17:25:26.519Z,5.02
2017-05-01T17:27:53.565Z,4.52
2017-05-01T17:30:20.625Z,4.33
2017-05-01T17:32:47.652Z,3.90
2017-05-01T17:35:14.701Z,3.92
2017-05-01T17:37:41.801Z,4.48
2017-05-01T17:40:08.897Z,3.52
2017-05-01T17:42:36.894Z,6.70
2017-05-01T17:45:03.986Z,4.18
2017-05-01T17:47:31.019Z,4.37
2017-05-01T17:49:58.093Z,4.53
2017-05-01T17:52:25.159Z,2.52
2017-05-01T17:54:52.197Z,2.15
2017-05-01T17:57:19.260Z,1.88
2017-05-01T17:59:46.289Z,2.50
2017-05-01T18:02:13.290Z,1.60
2017-05-01T18:04:40.391Z,2.17
2017-05-01T18:07:07.507Z,1.95
2017-05-01T18:09:34.566Z,2.25
2017-05-01T18:12:01.608Z,1.95
2017-05-01T18:14:28.679Z,1.85
2017-05-01T18:16:55.674Z,3.00
2017-05-01T18:19:22.695Z,1.57
2017-05-01T18:21:49.780Z,3.80
2017-05-01T18:24:16.842Z,3.25
2017-05-01T18:26:43.904Z,3.12
2017-05-01T18:29:10.909Z,2.72
2017-05-01T18:31:37.928Z,1.40
2017-05-01T18:34:04.947Z,1.92
2017-05-01T18:36:32.022Z,1.85
2017-05-01T18:38:59.030Z,1.22
2017-05-01T18:41:26.013Z,1.43
2017-05-01T18:43:53.086Z,1.50
2017-05-01T18:46:20.115Z,2.42
2017-05-01T18:48:47.909Z,2.10
2017-05-01T18:51:15.019Z,1.92
2017-05-01T18:53:42.142Z,2.02
2017-05-01T18:56:09.286Z,2.33
2017-05-01T18:58:36.737Z,2.43
2017-05-01T19:01:03.813Z,3.52
2017-05-01T19:03:31.051Z,2.77
2017-05-01T19:05:58.091Z,3.25
2017-05-01T19:08:25.143Z,2.48
2017-05-01T19:10:52.443Z,3.27
2017-05-01T19:13:19.655Z,2.77
2017-05-01T19:15:46.748Z,2.73
2017-05-01T19:18:14.003Z,3.22
2017-05-01T19:20:41.207Z,2.90
2017-05-01T19:23:08.419Z,2.92
2017-05-01T19:25:35.504Z,1.77
2017-05-01T19:28:02.643Z,3.23
2017-05-01T19:30:29.699Z,2.43
2017-05-01T19:32:57.011Z,2.98
2017-05-01T19:35:24.107Z,2.70
2017-05-01T19:37:51.374Z,2.30
2017-05-01T19:40:19.459Z,2.93
2017-05-01T19:42:46.569Z,2.50
2017-05-01T19:45:13.779Z,2.88
2017-05-01T19:47:40.827Z,2.73
2017-05-01T19:50:08.042Z,3.23
2017-05-01T19:52:35.113Z,3.85
2017-05-01T19:55:02.200Z,2.70
2017-05-01T19:57:29.287Z,2.97
2017-05-01T19:59:57.101Z,2.50
2017-05-01T20:02:24.190Z,4.95
2017-05-01T20:04:51.200Z,2.05
2017-05-01T20:07:18.238Z,2.98
2017-05-01T20:09:45.245Z,2.80
2017-05-01T20:12:13.052Z,4.53
2017-05-01T20:14:40.067Z,3.30
2017-05-01T20:17:07.817Z,5.22
2017-05-01T20:19:34.899Z,3.85
2017-05-01T20:22:01.924Z,3.45
2017-05-01T20:24:29.732Z,1.95
2017-05-01T20:26:56.796Z,1.75
2017-05-01T20:29:23.843Z,2.32
2017-05-01T20:31:50.919Z,1.58
2017-05-01T20:34:18.662Z,2.12
2017-05-01T20:36:45.654Z,2.82
2017-05-01T20:39:12.671Z,2.12
2017-05-01T20:41:39.692Z,2.13
2017-05-01T20:44:06.702Z,1.73
2017-05-01T20:46:33.763Z,3.85
2017-05-01T20:49:00.812Z,1.88
2017-05-01T20:51:27.844Z,2.12
2017-05-01T20:53:54.937Z,2.48
2017-05-01T20:56:21.951Z,2.57
2017-05-01T20:58:48.983Z,2.23
2017-05-01T21:01:16.067Z,2.97
2017-05-01T21:03:43.070Z,3.37
2017-05-01T21:06:10.117Z,2.82
2017-05-01T21:08:37.185Z,2.28
2017-05-01T21:11:04.214Z,3.17
2017-05-01T21:13:31.284Z,3.38
2017-05-01T21:15:58.356Z,2.95
2017-05-01T21:18:25.413Z,2.63
2017-05-01T21:20:52.444Z,3.13
2017-05-01T21:23:19.538Z,2.18
2017-05-01T21:25:47.581Z,1.78
2017-05-01T21:28:14.631Z,2.05
2017-05-01T21:30:41.675Z,1.78
2017-05-01T21:33:08.716Z,2.23
2017-05-01T21:35:35.735Z,1.88
2017-05-01T21:38:02.775Z,2.15
2017-05-01T21:40:29.796Z,2.95
2017-05-01T21:42:56.869Z,2.53
2017-05-01T21:45:23.960Z,2.88
2017-05-01T21:47:51.001Z,2.08
2017-05-01T21:50:18.049Z,2.90
2017-05-01T21:52:45.070Z,4.27
2017-05-01T21:55:12.120Z,3.13
2017-05-01T21:57:39.172Z,3.20
2017-05-01T22:00:06.185Z,3.17
2017-05-01T22:02:33.238Z,3.05
2017-05-01T22:05:00.291Z,3.42
2017-05-01T22:07:27.304Z,2.67
2017-05-01T22:09:55.069Z,2.52
2017-05-01T22:12:22.091Z,2.60
2017-05-01T22:14:49.087Z,1.93
2017-05-01T22:17:16.140Z,2.93
2017-05-01T22:19:43.209Z,3.00
2017-05-01T22:22:10.213Z,2.73
2017-05-01T22:24:37.223Z,3.10
2017-05-01T22:27:04.270Z,5.82
2017-05-01T22:29:31.271Z,3.18
2017-05-01T22:31:58.321Z,2.87
2017-05-01T22:34:25.373Z,3.15
2017-05-01T22:36:52.377Z,2.43
2017-05-01T22:39:20.201Z,2.92
2017-05-01T22:41:47.258Z,3.18
2017-05-01T22:44:14.236Z,2.87
2017-05-01T22:46:42.012Z,3.73
2017-05-01T22:49:09.806Z,3.22
2017-05-01T22:51:36.840Z,2.75
2017-05-01T22:54:03.895Z,3.47
2017-05-01T22:56:30.955Z,3.98
2017-05-01T22:58:58.005Z,3.82
2017-05-01T23:01:25.084Z,2.87
2017-05-01T23:03:52.137Z,3.80
2017-05-01T23:06:19.894Z,3.20
2017-05-01T23:08:46.905Z,5.25
2017-05-01T23:11:13.953Z,4.53
2017-05-01T23:13:41.014Z,3.83
2017-05-01T23:16:08.015Z,5.03
2017-05-01T23:18:37.929Z,4.95
2017-05-01T23:21:04.990Z,4.07
2017-05-01T23:23:32.016Z,3.83
2017-05-01T23:25:59.062Z,3.53
2017-05-01T23:28:26.765Z,3.28
2017-05-01T23:30:53.782Z,3.82
2017-05-01T23:33:20.895Z,3.58
2017-05-01T23:35:48.695Z,4.68
2017-05-01T23:38:15.718Z,3.85
2017-05-01T23:40:42.764Z,3.62
2017-05-01T23:43:10.576Z,4.28
2017-05-01T23:45:37.589Z,4.00
2017-05-01T23:48:04.595Z,4.37
2017-05-01T23:50:31.646Z,5.93
2017-05-01T23:52:58.666Z,4.93
2017-05-01T23:55:25.670Z,5.20
2017-05-01T23:57:53.456Z,7.45
